• Join FlightAware (Why Join?)
  • Login
  • US Flag 
04:10AM EDT


 

Airport Tracker/Info


-or-


 

Live Flight TrackerFlight Track Log ✈ SWA1713 ✈ 04-May-2013 ✈ KBUR - KDEN

Flight Track Log - Related Links

Times and Time Zones

All times are in EDT time to prevent confusion due to time zone crossing. See the SWA1713 flight status page for this flight to view local times or setup timezone preferences in your user account.

Time Position Orientation Groundspeed Altitude Reporting Facility
EDT Latitude Longitude Course Direction KTS MPH feet Rate Location/Type
07:42PM 34.1811 -118.3708 300° West 158 182 2,400  Level Los Angeles Center
07:43PM 34.2039 -118.4178 300° West 236 272 4,800 1,620 Climbing Los Angeles Center
07:44PM 34.2908 -118.4111 North 287 330 6,100 2,340 Climbing Los Angeles Center
07:45PM 34.3678 -118.3758 21° North 293 337 9,700 3,480 Climbing Los Angeles Center
07:46PM 34.4497 -118.3389 20° North 318 366 13,400 2,520 Climbing Los Angeles Center
07:47PM 34.5019 -118.2372 58° Northeast 361 415 15,000 2,460 Climbing Los Angeles Center
07:48PM 34.5394 -118.1003 72° East 371 427 18,600 3,300 Climbing Los Angeles Center
07:49PM 34.5758 -117.9756 70° East 392 451 21,900 2,160 Climbing Los Angeles Center
07:50PM 34.6153 -117.8389 71° East 432 497 23,100 1,020 Climbing Los Angeles Center
07:52PM 34.6553 -117.6903 72° East 463 533 24,000 1,080 Climbing Los Angeles Center
07:53PM 34.6969 -117.5411 71° East 470 541 25,400 2,160 Climbing Los Angeles Center
07:54PM 34.7489 -117.3536 71° East 491 565 28,500 2,880 Climbing Los Angeles Center
07:55PM 34.7922 -117.1992 71° East 491 565 31,400 2,340 Climbing Los Angeles Center
07:56PM 34.8350 -117.0406 72° East 497 572 33,900 2,280 Climbing Los Angeles Center
07:57PM 34.8886 -116.8544 71° East 489 563 36,600 2,100 Climbing Los Angeles Center
07:58PM 34.9708 -116.7272 52° Northeast 480 552 38,300 1,140 Climbing Los Angeles Center
07:59PM 35.0739 -116.5836 49° Northeast 473 544 39,000 300 Climbing Los Angeles Center
08:00PM 35.1592 -116.4619 49° Northeast 471 542 39,000  Level Los Angeles Center
08:01PM 35.2656 -116.3206 47° Northeast 471 542 39,000  Level Los Angeles Center
08:02PM 35.3506 -116.1992 49° Northeast 470 541 39,000  Level Los Angeles Center
08:03PM 35.4336 -116.0786 50° Northeast 466 536 39,000  Level Los Angeles Center
08:04PM 35.5206 -115.9589 48° Northeast 470 541 39,100  Climbing Los Angeles Center
08:05PM 35.6214 -115.8175 49° Northeast 467 537 39,000 -60 Descending Los Angeles Center
08:06PM 35.6872 -115.6764 60° Northeast 477 549 39,000  Level Los Angeles Center
08:07PM 35.7433 -115.5289 65° Northeast 478 550 39,000  Level Los Angeles Center
08:08PM 35.7997 -115.3825 65° Northeast 477 549 39,000  Level Los Angeles Center
08:09PM 35.8669 -115.2067 65° Northeast 476 548 39,000  Level Los Angeles Center
08:10PM 35.9222 -115.0600 65° Northeast 477 549 39,000  Level Los Angeles Center
08:11PM 35.9792 -114.9119 65° Northeast 478 550 39,000  Level Los Angeles Center
08:13PM 36.0356 -114.7644 65° Northeast 479 551 39,000  Level Los Angeles Center
08:14PM 36.0908 -114.6172 65° Northeast 476 548 39,000  Level Los Angeles Center
08:15PM 36.1464 -114.4694 65° Northeast 476 548 39,000  Level Los Angeles Center
08:16PM 36.2025 -114.3214 65° Northeast 477 549 39,000  Level Los Angeles Center
08:17PM 36.2681 -114.1419 66° East 477 549 39,000  Level Los Angeles Center
08:18PM 36.3233 -113.9925 65° Northeast 479 551 39,000  Level Los Angeles Center
08:19PM 36.3794 -113.8425 65° Northeast 480 552 39,000  Level Los Angeles Center
08:20PM 36.4336 -113.6919 66° East 479 551 39,000  Level Los Angeles Center
08:21PM 36.4892 -113.5411 65° Northeast 480 552 39,000  Level Los Angeles Center
08:22PM 36.5497 -113.3728 66° East 476 548 39,000  Level Los Angeles Center
08:23PM 36.6039 -113.2233 66° East 476 548 39,000  Level Los Angeles Center
08:24PM 36.6589 -113.0731 65° Northeast 478 550 39,000  Level Los Angeles Center
08:25PM 36.7122 -112.9206 66° East 482 555 39,000  Level Los Angeles Center
08:26PM 36.7669 -112.7700 66° East 481 554 39,000  Level Los Angeles Center
08:27PM 36.8300 -112.5881 67° East 480 552 39,000  Level Los Angeles Center
08:28PM 36.8853 -112.4375 65° Northeast 480 552 39,000  Level Los Angeles Center
08:29PM 36.9375 -112.2861 67° East 479 551 39,000  Level Los Angeles Center
08:30PM 36.9903 -112.1339 66° East 480 552 39,000  Level Los Angeles Center
08:31PM 37.0333 -112.0106 66° East 480 552 39,000  Level Denver Center
08:32PM 37.0986 -111.8278 66° East 482 555 39,000  Level Denver Center
08:33PM 37.1511 -111.6756 67° East 480 552 39,000  Level Denver Center
08:34PM 37.2000 -111.5258 68° East 471 542 39,000  Level Denver Center
08:35PM 37.2525 -111.3722 67° East 480 552 39,000  Level Denver Center
08:36PM 37.3042 -111.2197 67° East 478 550 39,000  Level Denver Center
08:37PM 37.3544 -111.0672 67° East 474 545 39,000  Level Denver Center
08:38PM 37.4058 -110.9133 67° East 478 550 39,000  Level Denver Center
08:39PM 37.4578 -110.7611 67° East 475 547 39,000  Level Denver Center
08:40PM 37.5172 -110.5769 68° East 476 548 39,000  Level Denver Center
08:41PM 37.5783 -110.3928 67° East 476 548 39,000  Level Denver Center
08:42PM 37.6256 -110.2450 68° East 475 547 39,000  Level Denver Center
08:43PM 37.6817 -110.0750 67° East 471 542 39,000  Level Denver Center
08:44PM 37.7294 -109.9256 68° East 477 549 39,000  Level Denver Center
08:45PM 37.7775 -109.7767 68° East 477 549 39,000  Level Denver Center
08:46PM 37.8386 -109.6050 66° East 479 551 39,000  Level Denver Center
08:47PM 37.8950 -109.4617 63° Northeast 476 548 39,000  Level Denver Center
08:49PM 37.9503 -109.3156 64° Northeast 479 551 39,000  Level Denver Center
08:50PM 38.0231 -109.1194 65° Northeast 480 552 39,000  Level Denver Center
08:51PM 38.0892 -108.9397 65° Northeast 477 549 39,000  Level Denver Center
08:52PM 38.1517 -108.7706 65° Northeast 474 545 39,000  Level Denver Center
08:53PM 38.2056 -108.6244 65° Northeast 476 548 39,000  Level Denver Center
08:54PM 38.2686 -108.4572 64° Northeast 473 544 39,000  Level Denver Center
08:55PM 38.3269 -108.3139 63° Northeast 475 547 39,000  Level Denver Center
08:56PM 38.3847 -108.1708 63° Northeast 476 548 39,000  Level Denver Center
08:57PM 38.4494 -108.0031 64° Northeast 474 545 39,000  Level Denver Center
08:58PM 38.5067 -107.8578 63° Northeast 479 551 39,000  Level Denver Center
08:59PM 38.5711 -107.6894 64° Northeast 475 547 39,000  Level Denver Center
09:00PM 38.6261 -107.5461 64° Northeast 472 543 39,000  Level Denver Center
09:01PM 38.6811 -107.4036 64° Northeast 469 540 39,000  Level Denver Center
09:02PM 38.7450 -107.2347 64° Northeast 471 542 39,000  Level Denver Center
09:03PM 38.8017 -107.0883 64° Northeast 479 551 39,000  Level Denver Center
09:04PM 38.8583 -106.9378 64° Northeast 473 544 39,000  Level Denver Center
09:05PM 38.9200 -106.7772 64° Northeast 470 541 39,000  Level Denver Center
09:06PM 38.9739 -106.6331 64° Northeast 468 539 39,000  Level Denver Center
09:07PM 39.0361 -106.4647 65° Northeast 468 539 39,000 -1,080 Level Denver Center
09:08PM 39.0892 -106.3211 65° Northeast 465 535 36,800 -2,760 Descending Denver Center
09:09PM 39.1494 -106.1558 65° Northeast 468 539 33,500 -3,300 Descending Denver Center
09:10PM 39.2072 -105.9975 65° Northeast 482 555 30,100 -3,060 Descending Denver Center
09:11PM 39.2631 -105.8428 65° Northeast 475 547 27,300 -2,640 Descending Denver Center
09:12PM 39.3175 -105.6958 64° Northeast 454 522 24,700 -2,460 Descending Denver Center
09:13PM 39.3683 -105.5533 65° Northeast 436 502 22,400 -1,800 Descending Denver Center
09:14PM 39.4211 -105.4281 61° Northeast 402 463 21,100 -1,620 Descending Denver Center
09:16PM 39.4881 -105.3064 54° Northeast 389 448 18,900 -1,860 Descending Denver Center
09:17PM 39.5606 -105.1653 56° Northeast 378 435 17,000 -1,320 Descending Denver Center
09:18PM 39.6158 -105.0619 55° Northeast 351 404 16,300 -1,080 Descending Denver Center
09:19PM 39.6719 -104.9542 56° Northeast 366 421 14,800 -1,440 Descending Denver Center
09:20PM 39.7322 -104.8511 53° Northeast 363 418 13,400 -1,560 Descending Denver Center
09:21PM 39.8342 -104.8403 North 338 389 11,700 -1,260 Descending Denver Center
09:22PM 39.9206 -104.8392 North 298 343 10,900 -600 Descending Denver Center
09:23PM 39.9903 -104.8394 360° North 243 280 10,500 -780 Descending Denver Center
09:24PM 40.0569 -104.8358 North 241 277 9,400 -1,140 Descending Denver Center
09:25PM 40.0681 -104.7594 79° East 233 268 8,200 -1,140 Descending Denver Center
09:26PM 40.0156 -104.7147 147° Southeast 211 243 7,100 -720 Descending Denver Center
09:27PM 39.9733 -104.6861 153° Southeast 174 200 6,800 -540 Descending Denver Center
09:28PM 39.9325 -104.6864 180° South 145 167 6,000 -780 Descending Denver Center
09:29PM 39.8956 -104.6869 181° South 134 154 5,300 -720 Descending Denver Center
09:31PM 39.8617 -104.6732 North  Level Estimated
09:38PM 39.8617 -104.6732 North  Level Estimated
09:39PM 39.8617 -104.6732 North  Level Estimated
09:40PM 39.8617 -104.6732 North  Level Estimated